Time;durP1;ratioP1;P1;durP2;ratioP2;P2;SDS_P1;SDS_P2;PMS_P1;PMS_P2;Temp;Humidity;BMP_temperature;BMP_pressure;BME280_temperature;BME280_humidity;BME280_pressure;Samples;Min_cycle;Max_cycle;Signal;HPM_P1;HPM_P2
2023/09/22 00:01:29;;;;;;;9.85;7.13;;;15.30;99.90;;;;;;6275802;22;20071;-89
2023/09/22 00:04:20;;;;;;;11.25;7.88;;;15.30;99.90;;;;;;6212052;22;1153375;-88
2023/09/22 00:06:55;;;;;;;9.65;8.70;;;14.80;99.90;;;;;;6243859;23;20008;-89
2023/09/22 00:09:21;;;;;;;10.57;8.48;;;15.30;99.90;;;;;;6245613;23;20034;-89
2023/09/22 00:12:08;;;;;;;11.15;9.95;;;16.50;99.90;;;;;;6245827;23;19999;-89
2023/09/22 00:17:19;;;;;;;16.85;11.38;;;15.30;99.90;;;;;;6245924;23;20376;-88
2023/09/22 00:19:59;;;;;;;13.10;11.48;;;16.00;99.90;;;;;;6244701;23;20012;-88
2023/09/22 00:22:46;;;;;;;12.85;11.63;;;16.10;99.90;;;;;;6246190;23;20019;-88
2023/09/22 00:25:12;;;;;;;14.77;13.05;;;16.80;99.90;;;;;;6129666;23;20018;-88
2023/09/22 00:27:59;;;;;;;19.20;14.77;;;15.30;99.90;;;;;;6245242;23;20019;-88
2023/09/22 00:30:26;;;;;;;20.70;15.63;;;15.40;99.90;;;;;;6246017;23;20001;-89
2023/09/22 00:32:52;;;;;;;19.98;15.88;;;16.00;99.90;;;;;;6244976;23;20104;-89
2023/09/22 00:35:36;;;;;;;24.27;17.95;;;15.10;99.90;;;;;;6245196;23;20032;-90
2023/09/22 00:38:01;;;;;;;22.83;18.95;;;15.10;99.90;;;;;;6247225;23;20007;-90
2023/09/22 00:40:50;;;;;;;25.15;19.33;;;15.10;99.90;;;;;;6246422;23;20328;-89
2023/09/22 00:43:31;;;;;;;25.10;20.17;;;15.10;99.90;;;;;;6246606;23;20001;-90
2023/09/22 00:46:21;;;;;;;28.30;21.23;;;15.00;99.90;;;;;;6262532;23;20004;-87
2023/09/22 00:49:02;;;;;;;27.98;20.35;;;15.80;99.90;;;;;;6253778;23;20004;-89
2023/09/22 00:51:37;;;;;;;25.13;18.23;;;16.40;99.90;;;;;;6246215;23;20169;-89
2023/09/22 00:54:03;;;;;;;26.02;19.77;;;15.30;99.90;;;;;;6245191;23;20004;-90
2023/09/22 00:56:51;;;;;;;26.08;18.73;;;14.70;99.90;;;;;;6246052;23;20310;-89
2023/09/22 00:59:40;;;;;;;31.38;20.88;;;15.40;99.90;;;;;;6245437;23;20019;-88
2023/09/22 01:02:05;;;;;;;29.55;20.15;;;14.50;99.90;;;;;;6245063;23;20007;-89
2023/09/22 01:04:31;;;;;;;29.63;20.05;;;16.30;99.90;;;;;;6244968;23;20016;-88
2023/09/22 01:06:58;;;;;;;28.35;19.70;;;14.80;99.90;;;;;;6245448;23;20420;-89
2023/09/22 01:09:23;;;;;;;33.25;21.42;;;15.60;99.90;;;;;;6245112;23;20000;-89
2023/09/22 01:11:52;;;;;;;32.63;21.95;;;14.70;99.90;;;;;;6244996;23;20008;-90
2023/09/22 01:14:18;;;;;;;28.80;21.08;;;15.50;99.90;;;;;;6246286;23;19992;-89
2023/09/22 01:16:44;;;;;;;29.52;20.13;;;14.70;99.90;;;;;;6244927;23;20380;-90
2023/09/22 01:21:52;;;;;;;28.92;20.20;;;14.70;99.90;;;;;;6245635;23;20559;-89
2023/09/22 01:24:19;;;;;;;27.70;20.08;;;14.60;99.90;;;;;;6245936;23;20028;-89
2023/09/22 01:26:45;;;;;;;30.02;21.08;;;16.10;99.90;;;;;;6242372;23;20015;-90
2023/09/22 01:29:11;;;;;;;26.52;20.38;;;15.40;99.90;;;;;;6245154;23;20081;-89
2023/09/22 01:31:36;;;;;;;28.20;19.88;;;14.70;99.90;;;;;;6244775;23;20004;-89
2023/09/22 01:34:02;;;;;;;26.77;19.25;;;14.70;99.90;;;;;;6245499;23;20320;-88
2023/09/22 01:36:29;;;;;;;26.75;20.85;;;14.60;99.90;;;;;;6246253;23;20332;-89
2023/09/22 01:38:57;;;;;;;29.17;20.60;;;15.30;99.90;;;;;;6245794;23;20087;-89
2023/09/22 01:41:23;;;;;;;24.60;18.73;;;14.80;99.90;;;;;;6261683;23;20061;-87
2023/09/22 01:43:49;;;;;;;25.98;19.73;;;15.20;99.90;;;;;;6250352;23;20067;-89
2023/09/22 01:46:15;;;;;;;24.50;18.83;;;15.70;99.90;;;;;;6246357;23;20007;-89
2023/09/22 01:48:40;;;;;;;27.60;20.10;;;15.70;99.90;;;;;;6269253;23;20004;-87
2023/09/22 01:51:06;;;;;;;32.97;20.35;;;16.00;99.90;;;;;;6246299;23;20004;-88
2023/09/22 01:53:31;;;;;;;31.95;20.92;;;15.90;99.90;;;;;;6247597;23;20456;-89
2023/09/22 01:56:02;;;;;;;26.38;19.65;;;16.10;99.90;;;;;;6246717;23;20455;-89
2023/09/22 01:58:34;;;;;;;28.83;19.45;;;14.90;99.90;;;;;;6244611;23;20441;-88
2023/09/22 02:01:00;;;;;;;22.55;17.98;;;15.00;99.90;;;;;;6245147;23;20058;-88
2023/09/22 02:03:26;;;;;;;21.95;17.35;;;15.30;99.90;;;;;;6245056;23;20004;-88
2023/09/22 02:06:09;;;;;;;23.77;18.33;;;16.00;99.90;;;;;;6243464;23;20024;-89
2023/09/22 02:08:35;;;;;;;20.48;16.77;;;15.20;99.90;;;;;;6245280;23;20001;-89
2023/09/22 02:11:13;;;;;;;21.23;16.67;;;15.00;99.90;;;;;;6244532;23;20321;-88
2023/09/22 02:14:03;;;;;;;20.05;16.48;;;15.70;99.90;;;;;;6244263;23;20325;-88
2023/09/22 02:16:53;;;;;;;19.13;15.50;;;15.00;99.90;;;;;;6245804;23;20000;-88
2023/09/22 02:19:18;;;;;;;24.80;16.15;;;15.10;99.90;;;;;;6246477;23;20016;-88
2023/09/22 02:21:59;;;;;;;21.35;15.40;;;15.50;99.90;;;;;;6247078;23;20071;-88
2023/09/22 02:24:49;;;;;;;16.77;13.30;;;15.10;99.90;;;;;;6246952;23;20015;-90
2023/09/22 02:27:15;;;;;;;25.20;15.18;;;15.20;99.90;;;;;;6246714;23;20045;-90
2023/09/22 02:30:02;;;;;;;17.80;14.25;;;15.00;99.90;;;;;;6233688;23;20099;-88
2023/09/22 02:32:49;;;;;;;19.63;13.75;;;15.10;99.90;;;;;;6247464;23;20000;-89
2023/09/22 02:35:16;;;;;;;18.33;14.18;;;15.10;99.90;;;;;;6253741;23;19981;-86
2023/09/22 02:38:04;;;;;;;16.55;13.63;;;15.10;99.90;;;;;;6262427;22;20091;-90
2023/09/22 02:40:50;;;;;;;18.73;13.60;;;15.20;99.90;;;;;;6267208;23;20008;-89
2023/09/22 02:43:38;;;;;;;18.30;14.02;;;15.90;99.90;;;;;;6270241;23;20020;-88
2023/09/22 02:46:30;;;;;;;19.02;14.07;;;15.90;99.90;;;;;;6256902;23;20027;-90
2023/09/22 02:49:20;;;;;;;15.30;13.25;;;15.70;99.90;;;;;;6135038;23;20726;-89
2023/09/22 02:51:56;;;;;;;17.17;13.55;;;15.10;99.90;;;;;;6215608;22;19988;-89
2023/09/22 02:54:46;;;;;;;17.55;12.18;;;14.90;99.90;;;;;;6246943;23;20024;-88
2023/09/22 02:57:12;;;;;;;18.38;12.05;;;15.60;99.90;;;;;;6246594;23;20432;-90
2023/09/22 02:59:56;;;;;;;15.98;11.90;;;15.40;99.90;;;;;;6245721;23;20012;-90
2023/09/22 03:02:22;;;;;;;15.43;11.10;;;16.30;99.90;;;;;;6245455;23;20058;-89
2023/09/22 03:04:58;;;;;;;15.75;11.10;;;15.70;99.90;;;;;;6245921;23;20011;-89
2023/09/22 03:07:23;;;;;;;14.95;11.77;;;15.00;99.90;;;;;;6245965;23;20039;-88
2023/09/22 03:10:11;;;;;;;11.38;9.82;;;15.00;99.90;;;;;;6245163;23;20023;-89
2023/09/22 03:12:50;;;;;;;;;;;;;;;;;;;;;
2023/09/22 03:15:27;;;;;;;16.75;10.52;;;15.50;99.90;;;;;;6238250;23;20104;-89
2023/09/22 03:17:52;;;;;;;13.88;9.98;;;16.30;99.90;;;;;;6246854;23;20004;-89
2023/09/22 03:20:42;;;;;;;21.92;11.20;;;15.00;99.90;;;;;;6247035;23;20016;-89
2023/09/22 03:23:08;;;;;;;16.33;10.68;;;14.90;99.90;;;;;;6246185;23;19996;-89
2023/09/22 03:28:38;;;;;;;16.48;9.70;;;14.80;99.90;;;;;;6216407;23;20043;-90
2023/09/22 03:31:04;;;;;;;17.52;10.90;;;14.90;99.90;;;;;;6232808;23;20008;-88
2023/09/22 03:33:46;;;;;;;14.68;10.38;;;15.50;99.90;;;;;;6218877;23;20070;-85
2023/09/22 03:36:13;;;;;;;11.15;9.57;;;14.90;99.90;;;;;;6206987;23;20020;-90
2023/09/22 03:38:40;;;;;;;20.50;11.05;;;15.60;99.90;;;;;;6215751;23;20034;-89
2023/09/22 03:41:28;;;;;;;12.55;9.43;;;14.70;99.90;;;;;;6216505;23;20008;-90
2023/09/22 03:44:12;;;;;;;11.27;9.23;;;14.80;99.90;;;;;;6216137;23;20019;-90
2023/09/22 03:46:38;;;;;;;14.75;9.52;;;15.20;99.90;;;;;;6215422;23;20000;-89
2023/09/22 03:49:05;;;;;;;16.98;9.98;;;16.00;99.90;;;;;;6215645;23;20015;-90
2023/09/22 03:51:30;;;;;;;11.15;9.50;;;14.80;99.90;;;;;;6215542;23;20441;-90
2023/09/22 03:53:56;;;;;;;13.57;9.48;;;14.70;99.90;;;;;;6241968;22;20060;-89
2023/09/22 03:56:22;;;;;;;13.02;8.95;;;15.60;99.90;;;;;;6223400;22;20422;-89
2023/09/22 03:58:48;;;;;;;14.80;9.10;;;15.00;99.90;;;;;;6215672;23;20325;-89
2023/09/22 04:01:14;;;;;;;15.20;8.43;;;14.80;99.90;;;;;;6216742;23;20357;-89
2023/09/22 04:03:40;;;;;;;11.77;9.35;;;16.10;99.90;;;;;;6215515;23;20015;-88
2023/09/22 04:06:05;;;;;;;17.27;9.30;;;14.90;99.90;;;;;;6214911;23;20007;-88
2023/09/22 04:08:31;;;;;;;14.75;9.35;;;15.20;99.90;;;;;;6215918;23;20011;-88
2023/09/22 04:10:57;;;;;;;16.63;9.60;;;14.90;99.90;;;;;;6214639;23;20071;-88
2023/09/22 04:13:30;;;;;;;12.55;8.95;;;16.10;99.90;;;;;;6216266;23;20329;-88
2023/09/22 04:16:03;;;;;;;15.98;9.32;;;14.80;99.90;;;;;;6215653;23;20001;-88
2023/09/22 04:18:29;;;;;;;18.08;9.55;;;14.90;99.90;;;;;;6215174;23;20429;-89
2023/09/22 04:20:56;;;;;;;10.10;8.35;;;15.60;99.90;;;;;;6218083;23;20009;-88
2023/09/22 04:23:24;;;;;;;14.95;9.13;;;15.30;99.90;;;;;;6219647;23;20001;-89
2023/09/22 04:25:53;;;;;;;13.80;9.55;;;14.80;99.90;;;;;;6232610;22;20068;-88
2023/09/22 04:28:23;;;;;;;10.85;8.65;;;15.20;99.90;;;;;;6221257;23;20013;-89
2023/09/22 04:30:49;;;;;;;11.77;8.47;;;15.00;99.90;;;;;;6228010;23;20008;-89
2023/09/22 04:33:15;;;;;;;10.52;8.52;;;14.80;99.90;;;;;;6215843;23;20071;-90
2023/09/22 04:35:41;;;;;;;12.52;8.68;;;14.90;99.90;;;;;;6216412;23;20005;-89
2023/09/22 04:38:08;;;;;;;8.90;7.82;;;14.90;99.90;;;;;;6216214;23;20000;-89
2023/09/22 04:40:44;;;;;;;12.40;9.63;;;14.80;99.90;;;;;;6215673;23;20009;-90
2023/09/22 04:43:27;;;;;;;13.85;9.80;;;14.80;99.90;;;;;;6216138;23;20092;-89
2023/09/22 04:45:53;;;;;;;11.80;9.32;;;14.80;99.90;;;;;;6215896;23;20012;-88
2023/09/22 04:51:05;;;;;;;13.50;9.70;;;15.70;99.90;;;;;;6158578;23;20087;-88
2023/09/22 04:53:45;;;;;;;13.18;8.77;;;14.70;99.90;;;;;;6244968;23;20000;-89
2023/09/22 04:56:11;;;;;;;12.30;9.40;;;14.60;99.90;;;;;;6260206;23;20008;-88
2023/09/22 04:59:03;;;;;;;11.20;8.30;;;15.00;99.90;;;;;;6254689;23;20015;-87
2023/09/22 05:01:41;;;;;;;11.60;9.07;;;15.80;99.90;;;;;;6107534;23;20012;-87
2023/09/22 05:04:34;;;;;;;9.70;8.38;;;14.70;99.90;;;;;;6246087;23;20008;-89
2023/09/22 05:07:30;;;;;;;11.70;8.30;;;14.70;99.90;;;;;;6245809;23;20313;-88
2023/09/22 05:10:19;;;;;;;12.05;8.50;;;14.10;99.90;;;;;;6245229;23;20441;-88
2023/09/22 05:13:14;;;;;;;11.93;8.13;;;14.70;99.90;;;;;;6244361;23;20306;-89
2023/09/22 05:16:09;;;;;;;18.73;7.85;;;14.70;99.90;;;;;;6220198;23;20405;-89
2023/09/22 05:19:02;;;;;;;8.40;7.50;;;14.70;99.90;;;;;;6245177;23;20042;-90
2023/09/22 05:21:52;;;;;;;11.45;7.85;;;14.80;99.90;;;;;;6248810;23;20004;-89
2023/09/22 05:24:40;;;;;;;9.75;7.28;;;14.20;99.90;;;;;;6245329;23;20008;-90
2023/09/22 05:27:34;;;;;;;11.15;7.75;;;14.60;99.90;;;;;;6240140;23;20428;-89
2023/09/22 05:30:25;;;;;;;9.73;6.78;;;14.50;99.90;;;;;;6244956;23;20027;-89
2023/09/22 05:33:29;;;;;;;;;;;14.70;99.90;;;;;;6240617;22;20112;-88
2023/09/22 05:40:05;;;;;;;11.23;6.97;;;14.00;99.90;;;;;;6093358;23;20464;-88
2023/09/22 05:43:57;;;;;;;;;;;;;;;;;;;;;
2023/09/22 05:47:01;;;;;;;;;;;;;;;;;;;;;
2023/09/22 05:54:09;;;;;;;;;;;;;;;;;;;;;
2023/09/22 05:57:03;;;;;;;5.82;5.32;;;14.80;99.90;;;;;;5899528;24;20028;-88
2023/09/22 05:59:29;;;;;;;13.05;6.25;;;14.70;99.90;;;;;;5951305;23;20001;-88
2023/09/22 06:02:00;;;;;;;5.82;4.93;;;14.70;99.90;;;;;;5929064;24;20012;-88
2023/09/22 06:04:30;;;;;;;7.72;5.50;;;14.80;99.90;;;;;;5926099;24;20005;-88
2023/09/22 06:07:14;;;;;;;5.40;4.90;;;14.90;99.90;;;;;;5926426;24;20009;-87
2023/09/22 06:09:58;;;;;;;6.97;5.25;;;14.90;99.90;;;;;;5969677;24;20149;-88
2023/09/22 06:13:05;;;;;;;;;;;;;;;;;;;;;
2023/09/22 06:16:25;;;;;;;5.30;4.65;;;13.80;99.90;;;;;;5900019;24;20076;-88
2023/09/22 06:36:05;;;;;;;5.13;4.45;;;14.70;99.90;;;;;;6214834;23;20417;-86
2023/09/22 06:42:55;;;;;;;;;;;;;;;;;;;;;
2023/09/22 06:45:46;;;;;;;6.38;3.28;;;15.50;99.90;;;;;;6098251;23;20482;-89
2023/09/22 06:48:29;;;;;;;3.72;3.25;;;14.60;99.90;;;;;;6191529;22;20092;-90
2023/09/22 07:05:29;;;;;;;;;;;;;;;;;;;;;
2023/09/22 07:08:40;;;;;;;10.10;2.15;;;14.60;99.90;;;;;;6053628;23;20101;-89
2023/09/22 07:18:22;;;;;;;;;;;;;;;;;;;;;
2023/09/22 07:20:48;;;;;;;3.00;2.42;;;14.70;99.90;;;;;;6039789;23;20092;-85
2023/09/22 07:23:14;;;;;;;2.58;1.90;;;15.70;99.90;;;;;;6124972;23;20002;-87
2023/09/22 07:26:06;;;;;;;3.08;2.08;;;14.90;99.90;;;;;;6125297;23;20002;-84
2023/09/22 07:28:32;;;;;;;8.02;2.30;;;14.70;99.90;;;;;;6215818;23;19997;-86
2023/09/22 07:31:20;;;;;;;3.88;1.75;;;14.70;99.90;;;;;;6215316;23;20058;-86
2023/09/22 07:33:46;;;;;;;3.53;2.25;;;15.90;99.90;;;;;;6215143;23;20004;-86
2023/09/22 07:36:13;;;;;;;2.50;2.22;;;15.50;99.90;;;;;;6214131;23;20009;-83
2023/09/22 07:38:57;;;;;;;3.85;2.40;;;14.60;99.90;;;;;;6215068;23;20000;-86
2023/09/22 07:41:41;;;;;;;2.20;2.05;;;15.10;99.90;;;;;;6215427;23;20009;-88
2023/09/22 07:44:07;;;;;;;6.72;2.50;;;14.50;99.90;;;;;;6214701;23;20028;-84
2023/09/22 07:46:32;;;;;;;4.35;2.42;;;14.20;99.90;;;;;;6215764;23;20005;-85
2023/09/22 07:48:58;;;;;;;8.20;2.80;;;15.20;99.90;;;;;;6214633;23;20025;-86
2023/09/22 07:51:24;;;;;;;3.80;2.90;;;14.60;99.90;;;;;;6214433;23;20064;-84
2023/09/22 07:53:49;;;;;;;4.53;2.75;;;15.20;99.90;;;;;;6215106;23;20012;-84
2023/09/22 07:56:18;;;;;;;3.03;2.83;;;14.50;99.90;;;;;;6214195;23;19996;-82
2023/09/22 07:58:44;;;;;;;5.63;3.00;;;14.50;99.90;;;;;;6187763;23;20525;-84
2023/09/22 08:01:15;;;;;;;2.40;2.20;;;14.60;99.90;;;;;;6215236;23;20008;-84
2023/09/22 08:03:43;;;;;;;2.55;2.35;;;14.50;99.90;;;;;;6214508;23;20043;-83
2023/09/22 08:06:12;;;;;;;2.58;2.42;;;14.70;99.90;;;;;;6215953;23;20001;-84
2023/09/22 08:08:38;;;;;;;3.25;2.78;;;15.50;99.90;;;;;;6214792;23;20008;-84
2023/09/22 08:11:04;;;;;;;3.65;2.65;;;15.10;99.90;;;;;;6214554;23;20004;-84
2023/09/22 08:13:33;;;;;;;3.30;2.80;;;14.70;99.90;;;;;;6214575;23;19997;-84
2023/09/22 08:15:59;;;;;;;4.30;2.72;;;14.90;99.90;;;;;;6214154;23;20019;-82
2023/09/22 08:18:25;;;;;;;3.20;2.78;;;14.80;99.90;;;;;;6214702;23;19997;-85
2023/09/22 08:20:51;;;;;;;2.85;2.65;;;15.10;99.90;;;;;;6215716;23;20321;-88
2023/09/22 08:23:17;;;;;;;4.65;2.75;;;14.80;99.90;;;;;;6215890;23;20007;-88
2023/09/22 08:25:46;;;;;;;6.25;2.88;;;14.80;99.90;;;;;;6214588;23;20074;-87
2023/09/22 08:28:15;;;;;;;2.50;2.40;;;14.80;99.90;;;;;;6215860;23;20075;-88
2023/09/22 08:30:40;;;;;;;5.15;2.60;;;14.90;99.90;;;;;;6215134;23;20008;-85
2023/09/22 08:33:07;;;;;;;2.63;2.42;;;14.90;99.90;;;;;;6214452;23;20295;-85
2023/09/22 08:35:33;;;;;;;4.93;2.20;;;14.80;99.90;;;;;;6214655;23;20004;-86
2023/09/22 08:38:00;;;;;;;6.40;2.55;;;14.80;99.90;;;;;;6214894;23;20330;-83
2023/09/22 08:40:26;;;;;;;4.50;2.67;;;14.80;99.90;;;;;;6214291;23;20008;-85
2023/09/22 08:42:55;;;;;;;6.25;3.03;;;14.90;99.90;;;;;;6213138;23;20507;-82
2023/09/22 08:45:21;;;;;;;3.60;3.08;;;15.00;99.90;;;;;;6213838;23;20005;-85
2023/09/22 08:47:49;;;;;;;3.83;3.47;;;14.90;99.90;;;;;;6215035;23;20007;-84
2023/09/22 08:50:24;;;;;;;6.80;2.72;;;14.90;99.90;;;;;;6213832;23;20021;-85
2023/09/22 08:52:51;;;;;;;3.38;3.00;;;15.30;99.90;;;;;;6213879;23;20016;-85
2023/09/22 08:55:17;;;;;;;3.13;2.83;;;15.00;99.90;;;;;;6213772;23;20040;-83
2023/09/22 08:57:48;;;;;;;3.33;2.90;;;15.80;99.90;;;;;;6220907;23;20426;-90
2023/09/22 09:00:19;;;;;;;2.60;2.40;;;14.90;99.90;;;;;;6220411;23;20039;-85
2023/09/22 09:02:49;;;;;;;5.43;3.25;;;14.90;99.90;;;;;;6221665;23;20059;-88
2023/09/22 09:05:22;;;;;;;2.63;2.42;;;14.90;99.90;;;;;;6218606;23;20063;-88
2023/09/22 09:07:49;;;;;;;2.83;2.63;;;14.90;99.90;;;;;;6224057;23;20000;-84
2023/09/22 09:10:34;;;;;;;2.63;2.42;;;14.90;99.90;;;;;;6227722;23;20009;-87
2023/09/22 09:13:01;;;;;;;2.40;2.20;;;15.00;99.90;;;;;;6217201;23;20406;-88
2023/09/22 09:15:29;;;;;;;4.30;2.40;;;15.90;99.90;;;;;;6214470;23;20014;-88
2023/09/22 09:18:08;;;;;;;2.58;2.38;;;15.00;99.90;;;;;;6217857;23;19997;-86
2023/09/22 09:20:36;;;;;;;6.15;3.08;;;15.60;99.90;;;;;;6216008;23;20009;-92
2023/09/22 09:23:34;;;;;;;4.88;3.55;;;15.00;99.90;;;;;;6216083;23;20062;-90
2023/09/22 09:26:00;;;;;;;3.97;2.85;;;15.80;99.90;;;;;;6133893;23;20009;-89
2023/09/22 09:28:26;;;;;;;3.28;2.40;;;14.90;99.90;;;;;;6215419;23;20289;-87
2023/09/22 09:30:57;;;;;;;5.05;3.03;;;16.30;99.90;;;;;;6209354;23;20480;-85
2023/09/22 09:33:24;;;;;;;2.85;2.65;;;15.20;99.90;;;;;;6212910;23;20055;-90
2023/09/22 09:35:50;;;;;;;8.90;3.30;;;15.50;99.90;;;;;;6214579;23;20004;-88
2023/09/22 09:38:17;;;;;;;3.28;2.53;;;15.30;99.90;;;;;;6214661;23;20005;-89
2023/09/22 09:40:43;;;;;;;2.90;2.70;;;15.40;99.90;;;;;;6214534;23;20012;-86
2023/09/22 09:43:12;;;;;;;3.40;3.03;;;15.30;99.90;;;;;;6213729;23;20080;-89
2023/09/22 09:45:46;;;;;;;6.95;2.80;;;15.40;99.90;;;;;;6212141;23;20008;-84
2023/09/22 09:48:16;;;;;;;3.58;3.15;;;15.50;99.90;;;;;;6212848;23;19997;-83
2023/09/22 09:50:51;;;;;;;4.60;2.40;;;15.40;99.90;;;;;;6210397;23;20425;-84
2023/09/22 09:53:36;;;;;;;3.03;2.55;;;15.60;99.90;;;;;;6213393;23;20005;-83
2023/09/22 09:56:05;;;;;;;3.70;2.38;;;15.60;99.90;;;;;;6212339;23;20011;-86
2023/09/22 09:58:34;;;;;;;3.88;2.03;;;15.60;99.90;;;;;;6213356;23;20012;-83
2023/09/22 10:01:08;;;;;;;3.78;2.30;;;15.70;99.90;;;;;;6212492;23;20012;-83
2023/09/22 10:03:39;;;;;;;2.10;1.85;;;15.70;99.90;;;;;;6212272;23;20078;-85
2023/09/22 10:06:09;;;;;;;2.58;2.30;;;15.70;99.90;;;;;;6212701;23;20000;-85
2023/09/22 10:08:35;;;;;;;2.17;1.98;;;15.80;99.90;;;;;;6212139;23;20000;-84
2023/09/22 10:11:09;;;;;;;4.78;2.00;;;15.70;99.90;;;;;;6216122;23;20005;-86
2023/09/22 10:13:58;;;;;;;2.90;1.50;;;16.10;99.90;;;;;;6215381;23;20011;-85
2023/09/22 10:16:29;;;;;;;5.07;2.05;;;15.70;99.90;;;;;;6213201;23;20066;-85
2023/09/22 10:19:07;;;;;;;3.35;1.95;;;15.90;99.90;;;;;;6211956;23;20147;-84
2023/09/22 10:21:39;;;;;;;4.22;1.98;;;15.90;99.90;;;;;;6210137;23;20012;-85
2023/09/22 10:24:25;;;;;;;5.30;1.50;;;16.00;99.90;;;;;;6211474;23;20009;-84
2023/09/22 10:26:56;;;;;;;3.42;1.92;;;16.00;99.90;;;;;;6212103;23;20007;-84
2023/09/22 10:29:41;;;;;;;4.78;1.92;;;16.10;99.90;;;;;;6211679;23;20004;-85
2023/09/22 10:32:26;;;;;;;2.60;1.65;;;16.20;99.90;;;;;;6210628;23;20425;-84
2023/09/22 10:35:06;;;;;;;3.53;1.40;;;16.20;99.90;;;;;;6210297;23;20001;-84
2023/09/22 10:38:01;;;;;;;2.63;1.88;;;16.10;99.90;;;;;;6198979;23;20058;-85
2023/09/22 10:40:26;;;;;;;3.00;2.10;;;16.20;99.90;;;;;;6211968;23;20333;-83
2023/09/22 10:42:52;;;;;;;4.43;1.88;;;16.20;99.90;;;;;;6211932;23;20005;-84
2023/09/22 10:45:30;;;;;;;3.45;2.22;;;16.40;99.90;;;;;;6211566;23;20012;-84
2023/09/22 10:48:00;;;;;;;2.88;1.40;;;16.10;99.90;;;;;;6215547;23;20082;-83
2023/09/22 10:53:12;;;;;;;6.72;1.42;;;16.10;99.90;;;;;;6213797;23;20106;-84
2023/09/22 10:55:40;;;;;;;2.08;1.33;;;16.20;99.90;;;;;;6214543;23;20417;-83
2023/09/22 10:58:26;;;;;;;2.35;1.33;;;16.10;99.90;;;;;;6215020;23;20008;-85
2023/09/22 11:01:05;;;;;;;1.58;1.30;;;16.10;99.90;;;;;;6212552;23;20135;-83
2023/09/22 11:03:33;;;;;;;1.23;1.13;;;16.20;99.90;;;;;;6214326;23;20004;-85
2023/09/22 11:06:13;;;;;;;1.92;1.30;;;16.40;99.90;;;;;;6213412;23;20009;-85
2023/09/22 11:08:49;;;;;;;;;;;16.20;99.90;;;;;;6214367;23;20009;-83
2023/09/22 11:11:28;;;;;;;3.95;1.13;;;16.20;99.90;;;;;;6214454;23;20316;-88
2023/09/22 11:13:54;;;;;;;3.35;1.35;;;16.20;99.90;;;;;;6215651;23;20071;-83
2023/09/22 11:16:29;;;;;;;2.38;1.67;;;16.40;99.90;;;;;;6218760;23;20331;-85
2023/09/22 11:19:05;;;;;;;1.95;1.13;;;16.90;99.90;;;;;;6213839;23;20016;-87
2023/09/22 11:21:38;;;;;;;5.15;1.80;;;16.30;99.90;;;;;;6212433;23;20004;-83
2023/09/22 11:24:05;;;;;;;3.53;1.08;;;16.20;99.90;;;;;;6212939;23;20028;-85
2023/09/22 11:26:40;;;;;;;2.70;1.20;;;16.40;99.90;;;;;;6213712;23;20001;-85
2023/09/22 11:29:05;;;;;;;3.45;1.45;;;16.40;99.90;;;;;;6211833;23;20058;-85
2023/09/22 11:31:32;;;;;;;3.60;1.13;;;17.30;99.90;;;;;;6211779;23;20370;-83
2023/09/22 11:34:03;;;;;;;2.45;1.80;;;16.50;99.90;;;;;;6213441;23;20095;-83
2023/09/22 11:36:45;;;;;;;3.05;0.90;;;16.50;99.90;;;;;;6214148;23;20009;-84
2023/09/22 11:39:23;;;;;;;1.13;0.90;;;16.40;99.90;;;;;;6213951;23;20020;-86
2023/09/22 11:41:49;;;;;;;1.67;0.80;;;16.50;99.90;;;;;;6221550;23;20056;-85
2023/09/22 11:44:15;;;;;;;0.82;0.70;;;16.70;99.90;;;;;;6218433;23;20012;-84
2023/09/22 11:46:46;;;;;;;3.33;1.00;;;17.00;99.90;;;;;;6211480;23;20004;-84
2023/09/22 11:49:12;;;;;;;2.63;0.98;;;16.70;99.90;;;;;;6210316;23;20024;-84
2023/09/22 11:51:38;;;;;;;1.08;0.77;;;16.50;99.90;;;;;;6210759;23;20421;-83
2023/09/22 11:54:04;;;;;;;4.32;1.08;;;16.50;99.90;;;;;;6211583;23;20076;-83
2023/09/22 11:56:29;;;;;;;2.50;0.65;;;16.50;99.90;;;;;;6211203;23;20007;-83
2023/09/22 11:59:07;;;;;;;2.70;0.70;;;16.60;99.90;;;;;;6212435;23;20020;-84
2023/09/22 12:01:32;;;;;;;2.13;1.27;;;16.70;99.90;;;;;;6212813;23;20001;-84
2023/09/22 12:03:58;;;;;;;3.80;0.98;;;16.70;99.90;;;;;;6212779;23;20001;-84
2023/09/22 12:06:24;;;;;;;0.93;0.75;;;17.70;99.90;;;;;;6214265;23;20036;-84
2023/09/22 12:08:51;;;;;;;0.90;0.85;;;16.70;99.90;;;;;;6213609;23;20032;-83
2023/09/22 12:11:17;;;;;;;1.08;0.80;;;16.80;99.90;;;;;;6213449;23;20013;-84
2023/09/22 12:13:43;;;;;;;3.65;0.98;;;16.80;99.90;;;;;;6213061;23;20004;-84
2023/09/22 12:16:09;;;;;;;1.27;0.90;;;17.70;99.90;;;;;;6214911;23;20004;-83
2023/09/22 12:18:34;;;;;;;1.60;0.70;;;16.80;99.90;;;;;;6216292;23;20036;-84
2023/09/22 12:21:00;;;;;;;3.90;0.95;;;17.50;99.90;;;;;;6213699;23;20012;-84
2023/09/22 12:23:25;;;;;;;2.88;0.85;;;16.80;99.90;;;;;;6212456;23;20414;-83
2023/09/22 12:25:54;;;;;;;4.60;0.88;;;17.60;99.90;;;;;;6212807;23;20009;-83
2023/09/22 12:28:19;;;;;;;2.35;1.13;;;17.10;99.90;;;;;;6211904;23;20412;-87
2023/09/22 12:30:46;;;;;;;1.73;0.90;;;16.90;99.90;;;;;;6212268;23;20043;-85
2023/09/22 12:33:12;;;;;;;2.63;0.77;;;17.80;99.90;;;;;;6213778;23;20094;-86
2023/09/22 12:35:41;;;;;;;2.03;0.90;;;17.00;99.90;;;;;;6221674;23;20131;-84
2023/09/22 12:38:07;;;;;;;6.05;1.67;;;17.00;99.90;;;;;;6221265;23;20078;-85
2023/09/22 12:40:32;;;;;;;2.17;1.08;;;16.90;99.90;;;;;;6213089;23;20036;-85
2023/09/22 12:43:07;;;;;;;0.85;0.80;;;16.80;99.90;;;;;;6214439;23;20005;-84
2023/09/22 12:45:32;;;;;;;1.90;1.10;;;16.90;99.90;;;;;;6211157;23;20013;-85
2023/09/22 12:47:58;;;;;;;1.77;1.52;;;17.80;99.90;;;;;;6212865;23;20373;-86
2023/09/22 12:50:24;;;;;;;1.52;1.10;;;17.50;99.90;;;;;;6212011;23;20081;-85
2023/09/22 12:52:50;;;;;;;6.28;1.20;;;16.80;99.90;;;;;;6208702;23;20036;-86
2023/09/22 12:55:16;;;;;;;2.65;1.00;;;16.80;99.90;;;;;;6211273;23;20001;-86
2023/09/22 12:57:41;;;;;;;2.53;1.20;;;16.80;99.90;;;;;;6210187;23;20005;-86
2023/09/22 13:00:11;;;;;;;3.75;1.42;;;17.20;99.90;;;;;;6210152;23;20024;-88
2023/09/22 13:02:39;;;;;;;1.75;1.00;;;17.40;99.90;;;;;;6210176;23;20310;-85
2023/09/22 13:05:06;;;;;;;3.90;1.20;;;17.00;99.90;;;;;;6211319;23;20004;-85
2023/09/22 13:07:31;;;;;;;3.15;1.50;;;16.70;99.90;;;;;;6215621;23;20067;-86
2023/09/22 13:09:57;;;;;;;1.77;1.10;;;16.70;99.90;;;;;;6213709;23;20365;-87
2023/09/22 13:12:24;;;;;;;2.65;1.33;;;16.70;99.90;;;;;;6213379;23;20046;-86
2023/09/22 13:14:54;;;;;;;3.75;1.25;;;16.70;99.90;;;;;;6211768;23;20363;-86
2023/09/22 13:17:20;;;;;;;1.33;1.13;;;16.60;99.90;;;;;;6213727;23;20125;-87
2023/09/22 13:19:46;;;;;;;1.25;1.15;;;16.70;99.90;;;;;;6218881;23;20052;-86
2023/09/22 13:22:12;;;;;;;4.43;1.88;;;16.60;99.90;;;;;;6222831;23;20000;-86
2023/09/22 13:24:37;;;;;;;5.20;1.73;;;16.80;99.90;;;;;;6213704;23;20047;-85
2023/09/22 13:27:04;;;;;;;2.55;1.98;;;16.70;99.90;;;;;;6212056;23;19993;-87
2023/09/22 13:29:45;;;;;;;4.22;2.13;;;16.80;99.90;;;;;;6212645;23;20012;-85
2023/09/22 13:32:12;;;;;;;2.83;1.67;;;16.70;99.90;;;;;;6211432;23;20039;-85
2023/09/22 13:34:37;;;;;;;3.00;2.00;;;16.70;99.90;;;;;;6211293;23;20005;-86
2023/09/22 13:37:15;;;;;;;1.83;1.73;;;16.70;99.90;;;;;;6213030;23;20039;-85
2023/09/22 13:39:41;;;;;;;3.80;1.77;;;16.70;99.90;;;;;;6212608;23;20039;-85
2023/09/22 13:42:08;;;;;;;2.83;1.70;;;16.70;99.90;;;;;;6212791;23;20083;-86
2023/09/22 13:44:33;;;;;;;2.28;1.42;;;16.70;99.90;;;;;;6213511;23;20064;-86
2023/09/22 13:47:14;;;;;;;5.45;2.10;;;17.70;99.90;;;;;;6212863;23;20000;-86
2023/09/22 13:49:40;;;;;;;5.93;2.67;;;16.70;99.90;;;;;;6211361;23;20449;-86
2023/09/22 13:52:06;;;;;;;2.08;1.65;;;17.70;99.90;;;;;;6213138;23;20012;-86
2023/09/22 13:54:31;;;;;;;2.67;2.20;;;17.00;99.90;;;;;;6212729;23;20406;-85
2023/09/22 13:56:57;;;;;;;3.17;1.92;;;16.70;99.90;;;;;;6212212;23;20004;-86
2023/09/22 13:59:34;;;;;;;7.28;2.72;;;16.70;99.90;;;;;;6200651;23;20549;-85
2023/09/22 14:02:00;;;;;;;3.17;2.40;;;16.60;99.90;;;;;;6211678;23;20420;-84
2023/09/22 14:04:26;;;;;;;2.80;2.60;;;16.50;99.90;;;;;;6212831;23;20043;-85
2023/09/22 14:07:07;;;;;;;3.45;3.10;;;16.50;99.90;;;;;;6213978;23;20051;-85
2023/09/22 14:09:34;;;;;;;5.43;2.67;;;17.80;99.90;;;;;;6211495;23;20015;-86
2023/09/22 14:11:59;;;;;;;3.53;2.40;;;17.70;99.90;;;;;;6213394;23;20000;-86
2023/09/22 14:14:25;;;;;;;5.32;2.33;;;17.40;99.90;;;;;;6214720;23;19997;-85
2023/09/22 14:17:03;;;;;;;5.13;2.58;;;16.40;99.90;;;;;;6213095;23;20004;-86
2023/09/22 14:19:29;;;;;;;2.78;2.22;;;17.40;99.90;;;;;;6215036;23;20016;-86
2023/09/22 14:21:54;;;;;;;13.27;3.17;;;16.20;99.90;;;;;;6216749;23;20004;-85
2023/09/22 14:24:20;;;;;;;3.60;2.63;;;16.60;99.90;;;;;;6221190;23;20414;-86
2023/09/22 14:26:47;;;;;;;3.88;2.70;;;16.60;99.90;;;;;;6214885;23;20048;-85